Bunch, Oklahoma
Current Conditions -  °F | °C
As of 7:15 AM on Monday 22 Dec 2014 (Local Time) from KJSV Reporting Station
Overcast Overcast  
Wind Chill: 44°   Ceiling: 1700
Heat Index: 46°   Visibility: 10mi
Dew Point: 45°   Wind: 6mph
Humidity: 93%   Direction: 90°E
Pressure: 29.63"   Gusts: NA
Location:  35.68°N, 94.76°W
Report Text: KJSV 221315Z AUTO 09005KT 10SM OVC017 08/07 A2963 RMK AO2
Loading
Personal Weather Stations






























Interactive Weather Map New forecast layout! Learn more

10-Day Weather Forecast

Advertisements
Track Severe Weather on mobile